sensor_id;sensor_type;location;lat;lon;timestamp;pressure;altitude;pressure_sealevel;temperature;humidity
13033;BME280;6583;42.632;23.298;2022-10-31T00:00:26;92967.97;;;14.69;63.82
13033;BME280;6583;42.632;23.298;2022-10-31T00:02:53;92978.13;;;14.67;64.59
13033;BME280;6583;42.632;23.298;2022-10-31T00:05:20;92963.34;;;14.61;63.67
13033;BME280;6583;42.632;23.298;2022-10-31T00:07:46;92954.22;;;14.62;64.00
13033;BME280;6583;42.632;23.298;2022-10-31T00:10:13;92952.66;;;14.61;64.65
13033;BME280;6583;42.632;23.298;2022-10-31T00:12:40;92944.94;;;14.59;65.02
13033;BME280;6583;42.632;23.298;2022-10-31T00:15:07;92954.31;;;14.57;64.80
13033;BME280;6583;42.632;23.298;2022-10-31T00:17:35;92950.69;;;14.53;64.87
13033;BME280;6583;42.632;23.298;2022-10-31T00:20:03;92953.94;;;14.49;65.85
13033;BME280;6583;42.632;23.298;2022-10-31T00:22:29;92939.63;;;14.45;65.66
13033;BME280;6583;42.632;23.298;2022-10-31T00:24:56;92942.41;;;14.40;65.69
13033;BME280;6583;42.632;23.298;2022-10-31T00:27:23;92952.91;;;14.37;66.51
13033;BME280;6583;42.632;23.298;2022-10-31T00:29:49;92957.47;;;14.36;67.29
13033;BME280;6583;42.632;23.298;2022-10-31T00:32:16;92963.22;;;14.29;66.58
13033;BME280;6583;42.632;23.298;2022-10-31T00:34:44;92957.06;;;14.29;66.21
13033;BME280;6583;42.632;23.298;2022-10-31T00:37:10;92943.25;;;14.27;66.81
13033;BME280;6583;42.632;23.298;2022-10-31T00:39:37;92948.41;;;14.23;66.21
13033;BME280;6583;42.632;23.298;2022-10-31T00:42:04;92943.84;;;14.24;66.24
13033;BME280;6583;42.632;23.298;2022-10-31T00:44:30;92946.50;;;14.24;65.96
13033;BME280;6583;42.632;23.298;2022-10-31T00:46:57;92943.25;;;14.27;66.15
13033;BME280;6583;42.632;23.298;2022-10-31T00:49:24;92942.47;;;14.26;66.35
13033;BME280;6583;42.632;23.298;2022-10-31T00:51:52;92944.06;;;14.27;66.02
13033;BME280;6583;42.632;23.298;2022-10-31T00:54:18;92944.06;;;14.27;66.89
13033;BME280;6583;42.632;23.298;2022-10-31T00:56:45;92942.28;;;14.23;67.17
13033;BME280;6583;42.632;23.298;2022-10-31T00:59:11;92948.50;;;14.18;66.92
13033;BME280;6583;42.632;23.298;2022-10-31T01:01:38;92944.94;;;14.23;67.30
13033;BME280;6583;42.632;23.298;2022-10-31T01:04:05;92944.75;;;14.19;68.44
13033;BME280;6583;42.632;23.298;2022-10-31T01:06:31;92946.63;;;14.19;68.22
13033;BME280;6583;42.632;23.298;2022-10-31T01:09:00;92944.28;;;14.17;68.55
13033;BME280;6583;42.632;23.298;2022-10-31T01:11:26;92947.44;;;14.19;68.60
13033;BME280;6583;42.632;23.298;2022-10-31T01:13:53;92947.84;;;14.13;68.79
13033;BME280;6583;42.632;23.298;2022-10-31T01:16:23;92944.88;;;14.14;68.78
13033;BME280;6583;42.632;23.298;2022-10-31T01:18:50;92950.50;;;14.13;68.80
13033;BME280;6583;42.632;23.298;2022-10-31T01:21:18;92954.25;;;14.11;69.16
13033;BME280;6583;42.632;23.298;2022-10-31T01:23:46;92954.56;;;14.10;67.79
13033;BME280;6583;42.632;23.298;2022-10-31T01:26:15;92963.84;;;14.13;69.56
13033;BME280;6583;42.632;23.298;2022-10-31T01:28:47;92958.31;;;14.09;70.17
13033;BME280;6583;42.632;23.298;2022-10-31T01:31:15;92965.03;;;14.06;69.26
13033;BME280;6583;42.632;23.298;2022-10-31T01:33:42;92954.97;;;14.03;69.00
13033;BME280;6583;42.632;23.298;2022-10-31T01:36:16;92955.28;;;14.02;69.08
13033;BME280;6583;42.632;23.298;2022-10-31T01:38:44;92952.22;;;14.08;69.14
13033;BME280;6583;42.632;23.298;2022-10-31T01:41:11;92962.25;;;14.11;69.27
13033;BME280;6583;42.632;23.298;2022-10-31T01:43:45;92961.06;;;14.18;67.80
13033;BME280;6583;42.632;23.298;2022-10-31T01:46:12;92963.03;;;14.26;68.62
13033;BME280;6583;42.632;23.298;2022-10-31T01:48:40;92962.13;;;14.30;67.90
13033;BME280;6583;42.632;23.298;2022-10-31T01:51:08;92962.19;;;14.39;67.16
13033;BME280;6583;42.632;23.298;2022-10-31T01:53:39;92960.50;;;14.43;67.58
13033;BME280;6583;42.632;23.298;2022-10-31T01:56:06;92968.88;;;14.51;67.18
13033;BME280;6583;42.632;23.298;2022-10-31T01:58:34;92965.53;;;14.59;66.85
13033;BME280;6583;42.632;23.298;2022-10-31T02:01:03;92970.44;;;14.65;66.72
13033;BME280;6583;42.632;23.298;2022-10-31T02:03:30;92973.59;;;14.68;66.32
13033;BME280;6583;42.632;23.298;2022-10-31T02:05:57;92971.59;;;14.73;66.16
13033;BME280;6583;42.632;23.298;2022-10-31T02:08:27;92965.84;;;14.80;65.94
13033;BME280;6583;42.632;23.298;2022-10-31T02:10:56;92963.66;;;14.82;66.17
13033;BME280;6583;42.632;23.298;2022-10-31T02:13:23;92961.16;;;14.85;66.43
13033;BME280;6583;42.632;23.298;2022-10-31T02:15:52;92964.31;;;14.88;66.87
13033;BME280;6583;42.632;23.298;2022-10-31T02:18:21;92957.69;;;14.85;67.24
13033;BME280;6583;42.632;23.298;2022-10-31T02:20:57;92959.56;;;14.84;67.42
13033;BME280;6583;42.632;23.298;2022-10-31T02:26:45;92957.34;;;14.78;68.30
13033;BME280;6583;42.632;23.298;2022-10-31T02:29:44;92956.22;;;14.79;67.60
13033;BME280;6583;42.632;23.298;2022-10-31T02:32:19;92959.19;;;14.77;67.47
13033;BME280;6583;42.632;23.298;2022-10-31T02:34:54;92969.88;;;14.77;67.23
13033;BME280;6583;42.632;23.298;2022-10-31T02:37:30;92974.44;;;14.77;67.31
13033;BME280;6583;42.632;23.298;2022-10-31T02:40:05;92974.63;;;14.80;66.28
13033;BME280;6583;42.632;23.298;2022-10-31T02:42:40;92984.41;;;14.85;66.26
13033;BME280;6583;42.632;23.298;2022-10-31T02:45:14;92993.50;;;14.84;65.74
13033;BME280;6583;42.632;23.298;2022-10-31T02:47:47;92992.97;;;14.73;65.36
13033;BME280;6583;42.632;23.298;2022-10-31T02:50:19;92993.16;;;14.77;65.41
13033;BME280;6583;42.632;23.298;2022-10-31T02:52:50;93002.56;;;14.74;65.80
13033;BME280;6583;42.632;23.298;2022-10-31T02:55:44;93002.06;;;14.72;66.23
13033;BME280;6583;42.632;23.298;2022-10-31T02:58:15;92997.03;;;14.71;66.84
13033;BME280;6583;42.632;23.298;2022-10-31T03:00:56;92994.16;;;14.67;66.97
13033;BME280;6583;42.632;23.298;2022-10-31T03:03:33;92991.59;;;14.62;66.98
13033;BME280;6583;42.632;23.298;2022-10-31T03:06:04;92992.25;;;14.59;67.58
13033;BME280;6583;42.632;23.298;2022-10-31T03:08:38;92992.63;;;14.52;68.93
13033;BME280;6583;42.632;23.298;2022-10-31T03:11:08;92994.28;;;14.48;69.58
13033;BME280;6583;42.632;23.298;2022-10-31T03:13:39;92997.41;;;14.41;68.77
13033;BME280;6583;42.632;23.298;2022-10-31T03:16:11;92999.56;;;14.39;68.74
13033;BME280;6583;42.632;23.298;2022-10-31T03:18:44;92999.56;;;14.39;69.76
13033;BME280;6583;42.632;23.298;2022-10-31T03:21:19;92990.59;;;14.35;70.48
13033;BME280;6583;42.632;23.298;2022-10-31T03:23:48;92996.53;;;14.32;70.49
13033;BME280;6583;42.632;23.298;2022-10-31T03:26:17;92992.59;;;14.29;70.59
13033;BME280;6583;42.632;23.298;2022-10-31T03:28:49;93001.97;;;14.27;70.62
13033;BME280;6583;42.632;23.298;2022-10-31T03:31:19;93001.47;;;14.25;71.19
13033;BME280;6583;42.632;23.298;2022-10-31T03:33:50;92998.94;;;14.20;71.50
13033;BME280;6583;42.632;23.298;2022-10-31T03:36:18;92998.53;;;14.13;71.87
13033;BME280;6583;42.632;23.298;2022-10-31T03:38:46;93006.06;;;14.10;72.29
13033;BME280;6583;42.632;23.298;2022-10-31T03:41:16;92997.88;;;14.07;72.90
13033;BME280;6583;42.632;23.298;2022-10-31T03:43:49;93006.16;;;14.05;72.87
13033;BME280;6583;42.632;23.298;2022-10-31T03:46:19;93006.75;;;14.02;73.25
13033;BME280;6583;42.632;23.298;2022-10-31T03:48:46;93006.56;;;13.99;73.92
13033;BME280;6583;42.632;23.298;2022-10-31T03:51:18;93009.03;;;13.95;74.65
13033;BME280;6583;42.632;23.298;2022-10-31T03:53:52;93011.22;;;13.93;74.72
13033;BME280;6583;42.632;23.298;2022-10-31T03:56:25;93012.88;;;13.89;75.15
13033;BME280;6583;42.632;23.298;2022-10-31T03:58:59;93009.72;;;13.87;75.64
13033;BME280;6583;42.632;23.298;2022-10-31T04:01:30;93019.44;;;13.83;76.28
13033;BME280;6583;42.632;23.298;2022-10-31T04:03:58;93016.03;;;13.77;76.03
13033;BME280;6583;42.632;23.298;2022-10-31T04:06:27;93019.81;;;13.76;76.37
13033;BME280;6583;42.632;23.298;2022-10-31T04:08:57;93024.16;;;13.72;76.25
13033;BME280;6583;42.632;23.298;2022-10-31T04:11:29;93020.22;;;13.69;75.11
13033;BME280;6583;42.632;23.298;2022-10-31T04:13:58;93026.81;;;13.72;74.90
13033;BME280;6583;42.632;23.298;2022-10-31T04:16:26;93023.56;;;13.75;74.59
13033;BME280;6583;42.632;23.298;2022-10-31T04:18:54;93030.00;;;13.74;74.85
13033;BME280;6583;42.632;23.298;2022-10-31T04:21:28;93028.88;;;13.75;74.68
13033;BME280;6583;42.632;23.298;2022-10-31T04:23:55;93037.38;;;13.77;74.22
13033;BME280;6583;42.632;23.298;2022-10-31T04:26:22;93032.56;;;13.79;74.38
13033;BME280;6583;42.632;23.298;2022-10-31T04:28:48;93025.34;;;13.80;75.43
13033;BME280;6583;42.632;23.298;2022-10-31T04:31:15;93032.28;;;13.81;74.79
13033;BME280;6583;42.632;23.298;2022-10-31T04:33:42;93028.31;;;13.78;76.21
13033;BME280;6583;42.632;23.298;2022-10-31T04:36:09;93036.13;;;13.75;76.17
13033;BME280;6583;42.632;23.298;2022-10-31T04:38:37;93032.97;;;13.72;75.93
13033;BME280;6583;42.632;23.298;2022-10-31T04:41:04;93032.97;;;13.72;75.35
13033;BME280;6583;42.632;23.298;2022-10-31T04:43:30;93033.84;;;13.68;76.43
13033;BME280;6583;42.632;23.298;2022-10-31T04:45:57;93039.56;;;13.61;76.54
13033;BME280;6583;42.632;23.298;2022-10-31T04:48:24;93041.63;;;13.64;76.44
13033;BME280;6583;42.632;23.298;2022-10-31T04:50:50;93035.81;;;13.62;76.72
13033;BME280;6583;42.632;23.298;2022-10-31T04:53:17;93041.16;;;13.62;77.25
13033;BME280;6583;42.632;23.298;2022-10-31T04:55:45;93041.63;;;13.64;77.95
13033;BME280;6583;42.632;23.298;2022-10-31T04:58:12;93037.91;;;13.65;77.97
13033;BME280;6583;42.632;23.298;2022-10-31T05:00:38;93041.44;;;13.61;79.34
13033;BME280;6583;42.632;23.298;2022-10-31T05:03:05;93035.41;;;13.55;79.66
13033;BME280;6583;42.632;23.298;2022-10-31T05:05:32;93045.34;;;13.49;78.91
13033;BME280;6583;42.632;23.298;2022-10-31T05:07:58;93046.75;;;13.47;79.59
13033;BME280;6583;42.632;23.298;2022-10-31T05:10:27;93054.25;;;13.45;80.51
13033;BME280;6583;42.632;23.298;2022-10-31T05:12:56;93057.50;;;13.42;79.08
13033;BME280;6583;42.632;23.298;2022-10-31T05:15:24;93063.81;;;13.46;80.33
13033;BME280;6583;42.632;23.298;2022-10-31T05:17:52;93063.53;;;13.47;81.06
13033;BME280;6583;42.632;23.298;2022-10-31T05:20:23;93057.91;;;13.49;81.38
13033;BME280;6583;42.632;23.298;2022-10-31T05:22:52;93062.16;;;13.50;80.00
13033;BME280;6583;42.632;23.298;2022-10-31T05:25:21;93059.69;;;13.53;80.80
13033;BME280;6583;42.632;23.298;2022-10-31T05:27:50;93063.44;;;13.52;80.79
13033;BME280;6583;42.632;23.298;2022-10-31T05:30:21;93066.88;;;13.53;79.71
13033;BME280;6583;42.632;23.298;2022-10-31T05:32:49;93064.03;;;13.49;80.37
13033;BME280;6583;42.632;23.298;2022-10-31T05:35:18;93066.41;;;13.51;79.90
13033;BME280;6583;42.632;23.298;2022-10-31T05:37:45;93069.25;;;13.54;80.01
13033;BME280;6583;42.632;23.298;2022-10-31T05:40:14;93063.34;;;13.58;80.21
13033;BME280;6583;42.632;23.298;2022-10-31T05:42:42;93073.72;;;13.59;79.96
13033;BME280;6583;42.632;23.298;2022-10-31T05:45:10;93075.03;;;13.62;80.21
13033;BME280;6583;42.632;23.298;2022-10-31T05:47:38;93074.72;;;13.63;81.19
13033;BME280;6583;42.632;23.298;2022-10-31T05:50:06;93085.91;;;13.65;80.81
13033;BME280;6583;42.632;23.298;2022-10-31T05:52:33;93084.78;;;13.66;81.33
13033;BME280;6583;42.632;23.298;2022-10-31T05:55:00;93079.84;;;13.60;81.08
13033;BME280;6583;42.632;23.298;2022-10-31T05:57:27;93082.41;;;13.65;79.11
13033;BME280;6583;42.632;23.298;2022-10-31T05:59:54;93082.41;;;13.65;79.29
13033;BME280;6583;42.632;23.298;2022-10-31T06:02:21;93082.22;;;13.61;79.40
13033;BME280;6583;42.632;23.298;2022-10-31T06:04:49;93088.03;;;13.63;79.09
13033;BME280;6583;42.632;23.298;2022-10-31T06:07:16;93090.41;;;13.65;81.17
13033;BME280;6583;42.632;23.298;2022-10-31T06:09:42;93085.38;;;13.63;81.44
13033;BME280;6583;42.632;23.298;2022-10-31T06:12:09;93103.25;;;13.63;82.17
13033;BME280;6583;42.632;23.298;2022-10-31T06:14:36;93100.41;;;13.59;82.63
13033;BME280;6583;42.632;23.298;2022-10-31T06:17:02;93106.00;;;13.58;83.55
13033;BME280;6583;42.632;23.298;2022-10-31T06:19:29;93098.59;;;13.54;82.59
13033;BME280;6583;42.632;23.298;2022-10-31T06:21:57;93113.72;;;13.59;81.19
13033;BME280;6583;42.632;23.298;2022-10-31T06:24:24;93105.72;;;13.59;81.62
13033;BME280;6583;42.632;23.298;2022-10-31T06:26:50;93106.72;;;13.63;81.76
13033;BME280;6583;42.632;23.298;2022-10-31T06:29:17;93113.63;;;13.64;82.79
13033;BME280;6583;42.632;23.298;2022-10-31T06:31:43;93125.28;;;13.68;81.12
13033;BME280;6583;42.632;23.298;2022-10-31T06:34:10;93122.72;;;13.63;82.05
13033;BME280;6583;42.632;23.298;2022-10-31T06:36:37;93130.03;;;13.71;82.06
13033;BME280;6583;42.632;23.298;2022-10-31T06:39:05;93129.75;;;13.73;82.39
13033;BME280;6583;42.632;23.298;2022-10-31T06:41:31;93132.91;;;13.75;81.83
13033;BME280;6583;42.632;23.298;2022-10-31T06:43:58;93134.50;;;13.76;81.57
13033;BME280;6583;42.632;23.298;2022-10-31T06:46:25;93125.13;;;13.79;80.71
13033;BME280;6583;42.632;23.298;2022-10-31T06:48:51;93140.53;;;13.82;80.81
13033;BME280;6583;42.632;23.298;2022-10-31T06:51:18;93130.28;;;13.89;79.88
13033;BME280;6583;42.632;23.298;2022-10-31T06:53:45;93125.13;;;13.92;81.21
13033;BME280;6583;42.632;23.298;2022-10-31T06:56:13;93134.44;;;13.95;79.01
13033;BME280;6583;42.632;23.298;2022-10-31T06:58:39;93135.22;;;13.96;79.79
13033;BME280;6583;42.632;23.298;2022-10-31T07:01:06;93125.53;;;14.00;81.27
13033;BME280;6583;42.632;23.298;2022-10-31T07:03:33;93137.22;;;14.04;79.33
13033;BME280;6583;42.632;23.298;2022-10-31T07:05:59;93131.09;;;14.03;79.21
13033;BME280;6583;42.632;23.298;2022-10-31T07:08:26;93132.47;;;14.01;79.32
13033;BME280;6583;42.632;23.298;2022-10-31T07:10:55;93135.81;;;14.06;79.66
13033;BME280;6583;42.632;23.298;2022-10-31T07:13:24;93139.22;;;14.12;79.57
13033;BME280;6583;42.632;23.298;2022-10-31T07:15:51;93145.81;;;14.15;79.79
13033;BME280;6583;42.632;23.298;2022-10-31T07:18:19;93136.94;;;14.19;78.48
13033;BME280;6583;42.632;23.298;2022-10-31T07:20:46;93144.03;;;14.24;80.18
13033;BME280;6583;42.632;23.298;2022-10-31T07:23:13;93138.13;;;14.27;79.15
13033;BME280;6583;42.632;23.298;2022-10-31T07:25:40;93131.41;;;14.29;79.42
13033;BME280;6583;42.632;23.298;2022-10-31T07:28:07;93130.78;;;14.33;78.49
13033;BME280;6583;42.632;23.298;2022-10-31T07:30:35;93116.16;;;14.30;79.66
13033;BME280;6583;42.632;23.298;2022-10-31T07:33:02;93114.19;;;14.36;79.24
13033;BME280;6583;42.632;23.298;2022-10-31T07:35:29;93123.19;;;14.40;78.70
13033;BME280;6583;42.632;23.298;2022-10-31T07:37:56;93114.88;;;14.41;80.30
13033;BME280;6583;42.632;23.298;2022-10-31T07:40:23;93120.63;;;14.48;78.10
13033;BME280;6583;42.632;23.298;2022-10-31T07:42:52;93118.31;;;14.56;78.98
13033;BME280;6583;42.632;23.298;2022-10-31T07:45:20;93125.78;;;14.59;78.17
13033;BME280;6583;42.632;23.298;2022-10-31T07:47:49;93124.56;;;14.65;77.51
13033;BME280;6583;42.632;23.298;2022-10-31T07:50:18;93114.66;;;14.65;77.33
13033;BME280;6583;42.632;23.298;2022-10-31T07:52:45;93123.88;;;14.73;78.10
13033;BME280;6583;42.632;23.298;2022-10-31T07:55:13;93125.84;;;14.81;77.63
13033;BME280;6583;42.632;23.298;2022-10-31T07:57:40;93119.75;;;14.90;78.12
13033;BME280;6583;42.632;23.298;2022-10-31T08:00:09;93123.13;;;14.95;77.90
13033;BME280;6583;42.632;23.298;2022-10-31T08:02:36;93130.22;;;15.00;77.19
13033;BME280;6583;42.632;23.298;2022-10-31T08:05:05;93133.78;;;15.09;76.56
13033;BME280;6583;42.632;23.298;2022-10-31T08:07:35;93133.38;;;15.16;75.30
13033;BME280;6583;42.632;23.298;2022-10-31T08:10:02;93138.09;;;15.19;75.99
13033;BME280;6583;42.632;23.298;2022-10-31T08:12:29;93142.78;;;15.13;74.95
13033;BME280;6583;42.632;23.298;2022-10-31T08:14:56;93136.53;;;15.18;76.04
13033;BME280;6583;42.632;23.298;2022-10-31T08:17:22;93134.53;;;15.23;76.82
13033;BME280;6583;42.632;23.298;2022-10-31T08:19:49;93134.41;;;15.29;75.32
13033;BME280;6583;42.632;23.298;2022-10-31T08:22:17;93141.22;;;15.35;74.61
13033;BME280;6583;42.632;23.298;2022-10-31T08:24:44;93134.03;;;15.44;73.97
13033;BME280;6583;42.632;23.298;2022-10-31T08:27:10;93139.16;;;15.54;76.03
13033;BME280;6583;42.632;23.298;2022-10-31T08:29:37;93140.28;;;15.62;75.76
13033;BME280;6583;42.632;23.298;2022-10-31T08:32:04;93133.44;;;15.70;73.81
13033;BME280;6583;42.632;23.298;2022-10-31T08:34:31;93141.34;;;15.75;73.00
13033;BME280;6583;42.632;23.298;2022-10-31T08:36:57;93135.13;;;15.88;72.85
13033;BME280;6583;42.632;23.298;2022-10-31T08:39:25;93145.09;;;15.96;72.67
13033;BME280;6583;42.632;23.298;2022-10-31T08:41:52;93143.06;;;16.02;72.81
13033;BME280;6583;42.632;23.298;2022-10-31T08:44:18;93139.94;;;16.09;73.12
13033;BME280;6583;42.632;23.298;2022-10-31T08:46:45;93141.56;;;16.19;73.62
13033;BME280;6583;42.632;23.298;2022-10-31T08:49:12;93141.31;;;16.29;73.52
13033;BME280;6583;42.632;23.298;2022-10-31T08:51:38;93141.66;;;16.36;71.70
13033;BME280;6583;42.632;23.298;2022-10-31T08:54:05;93150.81;;;16.44;71.28
13033;BME280;6583;42.632;23.298;2022-10-31T08:56:33;93145.00;;;16.50;71.81
13033;BME280;6583;42.632;23.298;2022-10-31T08:59:00;93142.00;;;16.52;71.14
13033;BME280;6583;42.632;23.298;2022-10-31T09:01:26;93151.81;;;16.57;70.11
13033;BME280;6583;42.632;23.298;2022-10-31T09:03:53;93137.47;;;16.61;71.47
13033;BME280;6583;42.632;23.298;2022-10-31T09:06:20;93141.56;;;16.67;73.57
13033;BME280;6583;42.632;23.298;2022-10-31T09:08:46;93148.06;;;16.75;69.33
13033;BME280;6583;42.632;23.298;2022-10-31T09:11:13;93147.59;;;16.82;70.29
13033;BME280;6583;42.632;23.298;2022-10-31T09:13:41;93142.94;;;16.96;71.06
13033;BME280;6583;42.632;23.298;2022-10-31T09:16:08;93138.66;;;17.04;70.71
13033;BME280;6583;42.632;23.298;2022-10-31T09:18:34;93140.28;;;17.14;71.04
13033;BME280;6583;42.632;23.298;2022-10-31T09:21:01;93136.50;;;17.23;68.19
13033;BME280;6583;42.632;23.298;2022-10-31T09:23:28;93139.34;;;17.36;70.54
13033;BME280;6583;42.632;23.298;2022-10-31T09:25:55;93133.50;;;17.42;69.87
13033;BME280;6583;42.632;23.298;2022-10-31T09:28:23;93143.88;;;17.53;67.24
13033;BME280;6583;42.632;23.298;2022-10-31T09:30:52;93142.00;;;17.62;67.12
13033;BME280;6583;42.632;23.298;2022-10-31T09:33:19;93142.16;;;17.65;65.39
13033;BME280;6583;42.632;23.298;2022-10-31T09:35:47;93139.44;;;17.74;67.72
13033;BME280;6583;42.632;23.298;2022-10-31T09:38:15;93136.13;;;17.77;62.98
13033;BME280;6583;42.632;23.298;2022-10-31T09:40:44;93137.06;;;17.90;60.59
13033;BME280;6583;42.632;23.298;2022-10-31T09:43:15;93140.88;;;17.98;59.84
13033;BME280;6583;42.632;23.298;2022-10-31T09:45:53;93132.47;;;18.08;62.33
13033;BME280;6583;42.632;23.298;2022-10-31T09:48:45;93134.63;;;18.15;61.16
13033;BME280;6583;42.632;23.298;2022-10-31T09:51:17;93137.28;;;18.23;61.95
13033;BME280;6583;42.632;23.298;2022-10-31T09:53:49;93131.09;;;18.32;62.22
13033;BME280;6583;42.632;23.298;2022-10-31T09:56:18;93138.47;;;18.44;61.51
13033;BME280;6583;42.632;23.298;2022-10-31T09:58:47;93132.00;;;18.45;62.76
13033;BME280;6583;42.632;23.298;2022-10-31T10:01:28;93140.41;;;18.43;62.36
13033;BME280;6583;42.632;23.298;2022-10-31T10:04:00;93133.09;;;18.44;61.04
13033;BME280;6583;42.632;23.298;2022-10-31T10:06:29;93127.72;;;18.44;63.15
13033;BME280;6583;42.632;23.298;2022-10-31T10:08:59;93124.44;;;18.38;62.76
13033;BME280;6583;42.632;23.298;2022-10-31T10:11:37;93125.53;;;18.37;59.07
13033;BME280;6583;42.632;23.298;2022-10-31T10:14:17;93118.44;;;18.41;61.63
13033;BME280;6583;42.632;23.298;2022-10-31T10:17:01;93121.91;;;18.41;61.52
13033;BME280;6583;42.632;23.298;2022-10-31T10:19:52;93122.03;;;18.45;59.46
13033;BME280;6583;42.632;23.298;2022-10-31T10:22:29;93116.97;;;18.44;61.39
13033;BME280;6583;42.632;23.298;2022-10-31T10:25:14;93118.44;;;18.41;59.48
13033;BME280;6583;42.632;23.298;2022-10-31T10:27:47;93105.91;;;18.45;58.50
13033;BME280;6583;42.632;23.298;2022-10-31T10:30:17;93104.16;;;18.49;56.52
13033;BME280;6583;42.632;23.298;2022-10-31T10:32:49;93103.50;;;18.52;57.15
13033;BME280;6583;42.632;23.298;2022-10-31T10:35:26;93101.28;;;18.54;57.91
13033;BME280;6583;42.632;23.298;2022-10-31T10:37:58;93099.34;;;18.64;58.90
13033;BME280;6583;42.632;23.298;2022-10-31T10:40:28;93090.75;;;18.70;57.11
13033;BME280;6583;42.632;23.298;2022-10-31T10:43:00;93092.97;;;18.68;56.89
13033;BME280;6583;42.632;23.298;2022-10-31T10:45:51;93099.81;;;18.66;56.67
13033;BME280;6583;42.632;23.298;2022-10-31T10:48:42;93095.66;;;18.68;55.81
13033;BME280;6583;42.632;23.298;2022-10-31T10:51:22;93094.88;;;18.68;57.82
13033;BME280;6583;42.632;23.298;2022-10-31T10:54:02;93093.09;;;18.72;54.87
13033;BME280;6583;42.632;23.298;2022-10-31T10:56:50;93089.78;;;18.75;55.86
13033;BME280;6583;42.632;23.298;2022-10-31T10:59:20;93088.81;;;18.79;54.32
13033;BME280;6583;42.632;23.298;2022-10-31T11:01:48;93091.38;;;18.76;55.37
13033;BME280;6583;42.632;23.298;2022-10-31T11:04:31;93089.09;;;18.87;58.21
13033;BME280;6583;42.632;23.298;2022-10-31T11:07:03;93085.78;;;18.90;57.22
13033;BME280;6583;42.632;23.298;2022-10-31T11:09:31;93093.03;;;18.89;55.75
13033;BME280;6583;42.632;23.298;2022-10-31T11:11:58;93076.25;;;18.92;54.68
13033;BME280;6583;42.632;23.298;2022-10-31T11:14:26;93085.25;;;18.96;56.03
13033;BME280;6583;42.632;23.298;2022-10-31T11:16:55;93077.63;;;18.98;57.42
13033;BME280;6583;42.632;23.298;2022-10-31T11:19:34;93077.19;;;18.96;55.35
13033;BME280;6583;42.632;23.298;2022-10-31T11:22:06;93074.13;;;18.98;56.35
13033;BME280;6583;42.632;23.298;2022-10-31T11:24:38;93073.38;;;18.97;53.41
13033;BME280;6583;42.632;23.298;2022-10-31T11:27:14;93070.16;;;19.04;55.19
13033;BME280;6583;42.632;23.298;2022-10-31T11:29:41;93069.97;;;19.09;55.64
13033;BME280;6583;42.632;23.298;2022-10-31T11:32:17;93064.63;;;19.01;54.68
13033;BME280;6583;42.632;23.298;2022-10-31T11:34:49;93066.63;;;19.12;56.24
13033;BME280;6583;42.632;23.298;2022-10-31T11:37:18;93062.13;;;19.16;55.34
13033;BME280;6583;42.632;23.298;2022-10-31T11:39:49;93057.88;;;19.15;55.15
13033;BME280;6583;42.632;23.298;2022-10-31T11:42:20;93054.41;;;19.15;54.60
13033;BME280;6583;42.632;23.298;2022-10-31T11:44:47;93059.56;;;19.20;53.22
13033;BME280;6583;42.632;23.298;2022-10-31T11:47:16;93053.09;;;19.21;54.13
13033;BME280;6583;42.632;23.298;2022-10-31T11:49:46;93055.44;;;19.23;56.01
13033;BME280;6583;42.632;23.298;2022-10-31T11:52:16;93054.66;;;19.22;55.44
13033;BME280;6583;42.632;23.298;2022-10-31T11:54:46;93050.84;;;19.23;57.13
13033;BME280;6583;42.632;23.298;2022-10-31T11:57:22;93051.63;;;19.24;57.19
13033;BME280;6583;42.632;23.298;2022-10-31T11:59:52;93056.22;;;19.23;53.68
13033;BME280;6583;42.632;23.298;2022-10-31T12:02:20;93045.34;;;19.20;55.28
13033;BME280;6583;42.632;23.298;2022-10-31T12:04:52;93044.38;;;19.24;54.00
13033;BME280;6583;42.632;23.298;2022-10-31T12:07:22;93045.91;;;19.25;54.36
13033;BME280;6583;42.632;23.298;2022-10-31T12:09:49;93044.81;;;19.26;55.38
13033;BME280;6583;42.632;23.298;2022-10-31T12:12:49;93045.91;;;19.25;56.37
13033;BME280;6583;42.632;23.298;2022-10-31T12:15:28;93040.41;;;19.22;56.38
13033;BME280;6583;42.632;23.298;2022-10-31T12:18:22;93039.19;;;19.19;55.48
13033;BME280;6583;42.632;23.298;2022-10-31T12:21:02;93042.56;;;19.28;56.40
13033;BME280;6583;42.632;23.298;2022-10-31T12:23:38;93038.09;;;19.32;56.12
13033;BME280;6583;42.632;23.298;2022-10-31T12:26:17;93041.59;;;19.33;55.94
13033;BME280;6583;42.632;23.298;2022-10-31T12:29:04;93050.00;;;19.31;56.49
13033;BME280;6583;42.632;23.298;2022-10-31T12:31:46;93042.81;;;19.35;59.07
13033;BME280;6583;42.632;23.298;2022-10-31T12:34:48;93048.41;;;19.30;54.53
13033;BME280;6583;42.632;23.298;2022-10-31T12:37:33;93041.91;;;19.31;53.95
13033;BME280;6583;42.632;23.298;2022-10-31T12:40:22;93035.28;;;19.29;56.12
13033;BME280;6583;42.632;23.298;2022-10-31T12:43:04;93040.78;;;19.32;55.62
13033;BME280;6583;42.632;23.298;2022-10-31T12:45:45;93038.78;;;19.29;56.10
13033;BME280;6583;42.632;23.298;2022-10-31T12:48:30;93038.78;;;19.29;57.64
13033;BME280;6583;42.632;23.298;2022-10-31T12:51:06;93035.47;;;19.24;58.83
13033;BME280;6583;42.632;23.298;2022-10-31T12:53:50;93037.72;;;19.22;59.73
13033;BME280;6583;42.632;23.298;2022-10-31T12:56:30;93036.69;;;19.14;60.26
13033;BME280;6583;42.632;23.298;2022-10-31T12:59:04;93030.59;;;19.05;60.46
13033;BME280;6583;42.632;23.298;2022-10-31T13:01:35;93037.94;;;18.95;61.02
13033;BME280;6583;42.632;23.298;2022-10-31T13:04:05;93031.84;;;18.86;61.86
13033;BME280;6583;42.632;23.298;2022-10-31T13:06:42;93040.75;;;18.78;62.02
13033;BME280;6583;42.632;23.298;2022-10-31T13:09:17;93042.72;;;18.69;62.48
13033;BME280;6583;42.632;23.298;2022-10-31T13:11:50;93035.47;;;18.60;63.09
13033;BME280;6583;42.632;23.298;2022-10-31T13:14:23;93034.91;;;18.46;63.08
13033;BME280;6583;42.632;23.298;2022-10-31T13:16:52;93034.00;;;18.42;63.65
13033;BME280;6583;42.632;23.298;2022-10-31T13:19:25;93036.28;;;18.31;64.01